sensor_id;sensor_type;location;lat;lon;timestamp;P1;durP1;ratioP1;P2;durP2;ratioP2
53439;SDS011;39333;47.044;15.080;2023-01-28T00:00:52;143.65;;;134.40;;
53439;SDS011;39333;47.044;15.080;2023-01-28T00:03:19;128.63;;;120.93;;
53439;SDS011;39333;47.044;15.080;2023-01-28T00:05:47;121.90;;;114.72;;
53439;SDS011;39333;47.044;15.080;2023-01-28T00:08:14;124.18;;;117.05;;
53439;SDS011;39333;47.044;15.080;2023-01-28T00:10:42;132.20;;;125.05;;
53439;SDS011;39333;47.044;15.080;2023-01-28T00:13:10;134.00;;;127.10;;
53439;SDS011;39333;47.044;15.080;2023-01-28T00:15:40;136.63;;;129.43;;
53439;SDS011;39333;47.044;15.080;2023-01-28T00:18:07;131.85;;;125.07;;
53439;SDS011;39333;47.044;15.080;2023-01-28T00:20:34;138.60;;;131.20;;
53439;SDS011;39333;47.044;15.080;2023-01-28T00:23:01;129.63;;;122.85;;
53439;SDS011;39333;47.044;15.080;2023-01-28T00:25:29;127.13;;;120.25;;
53439;SDS011;39333;47.044;15.080;2023-01-28T00:27:56;125.97;;;119.28;;
53439;SDS011;39333;47.044;15.080;2023-01-28T00:30:23;132.35;;;125.30;;
53439;SDS011;39333;47.044;15.080;2023-01-28T00:32:50;138.68;;;131.00;;
53439;SDS011;39333;47.044;15.080;2023-01-28T00:35:18;136.35;;;128.88;;
53439;SDS011;39333;47.044;15.080;2023-01-28T00:37:45;138.02;;;130.85;;
53439;SDS011;39333;47.044;15.080;2023-01-28T00:40:12;124.03;;;117.15;;
53439;SDS011;39333;47.044;15.080;2023-01-28T00:42:39;136.98;;;129.98;;
53439;SDS011;39333;47.044;15.080;2023-01-28T00:45:07;132.35;;;124.70;;
53439;SDS011;39333;47.044;15.080;2023-01-28T00:47:34;121.85;;;115.13;;
53439;SDS011;39333;47.044;15.080;2023-01-28T00:50:01;137.77;;;130.30;;
53439;SDS011;39333;47.044;15.080;2023-01-28T00:52:29;136.88;;;130.20;;
53439;SDS011;39333;47.044;15.080;2023-01-28T00:54:56;139.25;;;131.43;;
53439;SDS011;39333;47.044;15.080;2023-01-28T00:57:24;125.32;;;118.63;;
53439;SDS011;39333;47.044;15.080;2023-01-28T00:59:51;127.78;;;121.10;;
53439;SDS011;39333;47.044;15.080;2023-01-28T01:02:20;130.98;;;123.03;;
53439;SDS011;39333;47.044;15.080;2023-01-28T01:04:47;125.68;;;118.53;;
53439;SDS011;39333;47.044;15.080;2023-01-28T01:07:27;134.55;;;127.35;;
53439;SDS011;39333;47.044;15.080;2023-01-28T01:10:13;137.52;;;130.02;;
53439;SDS011;39333;47.044;15.080;2023-01-28T01:12:42;136.70;;;129.10;;
53439;SDS011;39333;47.044;15.080;2023-01-28T01:15:09;132.20;;;124.78;;
53439;SDS011;39333;47.044;15.080;2023-01-28T01:17:37;139.40;;;131.52;;
53439;SDS011;39333;47.044;15.080;2023-01-28T01:20:06;129.82;;;122.78;;
53439;SDS011;39333;47.044;15.080;2023-01-28T01:22:35;132.23;;;124.90;;
53439;SDS011;39333;47.044;15.080;2023-01-28T01:25:04;122.03;;;115.20;;
53439;SDS011;39333;47.044;15.080;2023-01-28T01:27:34;129.43;;;121.90;;
53439;SDS011;39333;47.044;15.080;2023-01-28T01:30:02;130.07;;;122.43;;
53439;SDS011;39333;47.044;15.080;2023-01-28T01:32:32;132.07;;;124.50;;
53439;SDS011;39333;47.044;15.080;2023-01-28T01:35:03;121.15;;;114.38;;
53439;SDS011;39333;47.044;15.080;2023-01-28T01:37:33;137.45;;;130.52;;
53439;SDS011;39333;47.044;15.080;2023-01-28T01:40:02;125.05;;;118.88;;
53439;SDS011;39333;47.044;15.080;2023-01-28T01:42:31;120.55;;;114.15;;
53439;SDS011;39333;47.044;15.080;2023-01-28T01:50:32;123.80;;;116.90;;
53439;SDS011;39333;47.044;15.080;2023-01-28T01:53:08;120.63;;;114.40;;
53439;SDS011;39333;47.044;15.080;2023-01-28T01:55:42;135.40;;;127.95;;
53439;SDS011;39333;47.044;15.080;2023-01-28T01:58:14;128.55;;;121.28;;
53439;SDS011;39333;47.044;15.080;2023-01-28T02:00:43;132.48;;;124.97;;
53439;SDS011;39333;47.044;15.080;2023-01-28T02:03:10;123.40;;;116.55;;
53439;SDS011;39333;47.044;15.080;2023-01-28T02:05:37;127.25;;;119.93;;
53439;SDS011;39333;47.044;15.080;2023-01-28T02:08:05;138.40;;;130.43;;
53439;SDS011;39333;47.044;15.080;2023-01-28T02:10:54;124.30;;;116.43;;
53439;SDS011;39333;47.044;15.080;2023-01-28T02:13:26;118.60;;;111.70;;
53439;SDS011;39333;47.044;15.080;2023-01-28T02:15:58;120.40;;;114.03;;
53439;SDS011;39333;47.044;15.080;2023-01-28T02:18:27;135.15;;;127.03;;
53439;SDS011;39333;47.044;15.080;2023-01-28T02:32:36;135.93;;;128.30;;
53439;SDS011;39333;47.044;15.080;2023-01-28T02:35:40;130.32;;;123.15;;
53439;SDS011;39333;47.044;15.080;2023-01-28T02:38:19;137.98;;;130.75;;
53439;SDS011;39333;47.044;15.080;2023-01-28T02:40:53;131.93;;;125.35;;
53439;SDS011;39333;47.044;15.080;2023-01-28T02:43:41;123.05;;;116.97;;
53439;SDS011;39333;47.044;15.080;2023-01-28T02:49:08;124.07;;;118.28;;
53439;SDS011;39333;47.044;15.080;2023-01-28T02:57:37;131.15;;;124.10;;
53439;SDS011;39333;47.044;15.080;2023-01-28T03:00:18;132.10;;;124.43;;
53439;SDS011;39333;47.044;15.080;2023-01-28T03:02:57;123.43;;;116.93;;
53439;SDS011;39333;47.044;15.080;2023-01-28T03:05:35;130.18;;;122.88;;
53439;SDS011;39333;47.044;15.080;2023-01-28T03:08:09;123.05;;;115.88;;
53439;SDS011;39333;47.044;15.080;2023-01-28T03:10:55;131.43;;;124.45;;
53439;SDS011;39333;47.044;15.080;2023-01-28T03:13:43;120.63;;;114.65;;
53439;SDS011;39333;47.044;15.080;2023-01-28T03:16:31;116.45;;;110.05;;
53439;SDS011;39333;47.044;15.080;2023-01-28T03:19:19;128.85;;;121.93;;
53439;SDS011;39333;47.044;15.080;2023-01-28T03:22:07;134.05;;;126.30;;
53439;SDS011;39333;47.044;15.080;2023-01-28T03:24:53;117.70;;;111.43;;
53439;SDS011;39333;47.044;15.080;2023-01-28T03:27:49;133.32;;;126.43;;
53439;SDS011;39333;47.044;15.080;2023-01-28T03:30:50;112.25;;;106.20;;
53439;SDS011;39333;47.044;15.080;2023-01-28T03:33:48;125.93;;;119.13;;
53439;SDS011;39333;47.044;15.080;2023-01-28T03:36:35;125.22;;;118.32;;
53439;SDS011;39333;47.044;15.080;2023-01-28T03:39:30;133.70;;;126.35;;
53439;SDS011;39333;47.044;15.080;2023-01-28T03:41:59;122.97;;;116.05;;
53439;SDS011;39333;47.044;15.080;2023-01-28T03:44:26;126.65;;;119.68;;
53439;SDS011;39333;47.044;15.080;2023-01-28T03:47:12;122.13;;;115.23;;
53439;SDS011;39333;47.044;15.080;2023-01-28T03:49:43;116.90;;;110.30;;
53439;SDS011;39333;47.044;15.080;2023-01-28T03:52:25;127.72;;;121.10;;
53439;SDS011;39333;47.044;15.080;2023-01-28T03:55:07;124.00;;;117.10;;
53439;SDS011;39333;47.044;15.080;2023-01-28T03:57:40;130.07;;;123.15;;
53439;SDS011;39333;47.044;15.080;2023-01-28T04:00:07;123.03;;;116.38;;
53439;SDS011;39333;47.044;15.080;2023-01-28T04:02:39;122.18;;;115.22;;
53439;SDS011;39333;47.044;15.080;2023-01-28T04:05:10;118.28;;;111.53;;
53439;SDS011;39333;47.044;15.080;2023-01-28T04:07:44;131.27;;;124.18;;
53439;SDS011;39333;47.044;15.080;2023-01-28T04:10:19;136.10;;;128.50;;
53439;SDS011;39333;47.044;15.080;2023-01-28T04:12:54;119.53;;;113.00;;
53439;SDS011;39333;47.044;15.080;2023-01-28T04:15:22;134.75;;;127.72;;
53439;SDS011;39333;47.044;15.080;2023-01-28T04:17:49;129.65;;;122.57;;
53439;SDS011;39333;47.044;15.080;2023-01-28T04:20:28;135.25;;;127.28;;
53439;SDS011;39333;47.044;15.080;2023-01-28T04:22:58;132.98;;;124.20;;
53439;SDS011;39333;47.044;15.080;2023-01-28T04:25:24;128.07;;;119.93;;
53439;SDS011;39333;47.044;15.080;2023-01-28T04:27:52;121.65;;;114.68;;
53439;SDS011;39333;47.044;15.080;2023-01-28T04:30:21;140.90;;;132.48;;
53439;SDS011;39333;47.044;15.080;2023-01-28T04:33:24;123.47;;;116.30;;
53439;SDS011;39333;47.044;15.080;2023-01-28T04:36:09;119.55;;;112.80;;
53439;SDS011;39333;47.044;15.080;2023-01-28T04:38:42;119.32;;;112.85;;
53439;SDS011;39333;47.044;15.080;2023-01-28T04:41:34;121.70;;;114.53;;
53439;SDS011;39333;47.044;15.080;2023-01-28T04:44:24;140.65;;;132.50;;
53439;SDS011;39333;47.044;15.080;2023-01-28T04:46:51;122.03;;;114.95;;
53439;SDS011;39333;47.044;15.080;2023-01-28T04:49:42;119.07;;;112.88;;
53439;SDS011;39333;47.044;15.080;2023-01-28T04:52:23;138.95;;;131.25;;
53439;SDS011;39333;47.044;15.080;2023-01-28T04:55:10;135.30;;;127.65;;
53439;SDS011;39333;47.044;15.080;2023-01-28T04:57:37;131.18;;;124.10;;
53439;SDS011;39333;47.044;15.080;2023-01-28T05:00:06;123.80;;;117.20;;
53439;SDS011;39333;47.044;15.080;2023-01-28T05:02:35;127.63;;;120.45;;
53439;SDS011;39333;47.044;15.080;2023-01-28T05:05:02;131.93;;;124.97;;
53439;SDS011;39333;47.044;15.080;2023-01-28T05:07:52;131.95;;;124.57;;
53439;SDS011;39333;47.044;15.080;2023-01-28T05:10:20;138.40;;;131.07;;
53439;SDS011;39333;47.044;15.080;2023-01-28T05:12:48;127.15;;;119.38;;
53439;SDS011;39333;47.044;15.080;2023-01-28T05:15:16;138.07;;;129.88;;
53439;SDS011;39333;47.044;15.080;2023-01-28T05:17:44;137.77;;;130.65;;
53439;SDS011;39333;47.044;15.080;2023-01-28T05:20:13;144.05;;;135.57;;
53439;SDS011;39333;47.044;15.080;2023-01-28T05:22:43;122.40;;;115.30;;
53439;SDS011;39333;47.044;15.080;2023-01-28T05:25:32;135.43;;;127.22;;
53439;SDS011;39333;47.044;15.080;2023-01-28T05:28:00;134.30;;;126.63;;
53439;SDS011;39333;47.044;15.080;2023-01-28T05:30:27;137.25;;;129.57;;
53439;SDS011;39333;47.044;15.080;2023-01-28T05:32:54;125.25;;;118.03;;
53439;SDS011;39333;47.044;15.080;2023-01-28T05:35:23;129.75;;;121.57;;
53439;SDS011;39333;47.044;15.080;2023-01-28T05:37:50;127.63;;;120.45;;
53439;SDS011;39333;47.044;15.080;2023-01-28T05:40:20;136.93;;;129.10;;
53439;SDS011;39333;47.044;15.080;2023-01-28T05:42:47;141.00;;;133.50;;
53439;SDS011;39333;47.044;15.080;2023-01-28T05:45:34;140.77;;;132.73;;
53439;SDS011;39333;47.044;15.080;2023-01-28T05:48:23;138.95;;;131.10;;
53439;SDS011;39333;47.044;15.080;2023-01-28T05:51:09;137.32;;;128.80;;
53439;SDS011;39333;47.044;15.080;2023-01-28T05:53:39;123.38;;;116.13;;
53439;SDS011;39333;47.044;15.080;2023-01-28T05:56:06;124.78;;;117.78;;
53439;SDS011;39333;47.044;15.080;2023-01-28T05:58:35;141.13;;;133.73;;
53439;SDS011;39333;47.044;15.080;2023-01-28T06:01:02;124.03;;;117.00;;
53439;SDS011;39333;47.044;15.080;2023-01-28T06:03:38;128.38;;;120.97;;
53439;SDS011;39333;47.044;15.080;2023-01-28T06:06:05;127.32;;;120.40;;
53439;SDS011;39333;47.044;15.080;2023-01-28T06:08:33;129.23;;;121.53;;
53439;SDS011;39333;47.044;15.080;2023-01-28T06:11:00;135.48;;;128.02;;
53439;SDS011;39333;47.044;15.080;2023-01-28T06:13:31;145.00;;;137.25;;
53439;SDS011;39333;47.044;15.080;2023-01-28T06:16:17;141.00;;;132.73;;
53439;SDS011;39333;47.044;15.080;2023-01-28T06:18:56;140.80;;;133.35;;
53439;SDS011;39333;47.044;15.080;2023-01-28T06:21:23;147.30;;;138.90;;
53439;SDS011;39333;47.044;15.080;2023-01-28T06:23:49;156.10;;;145.27;;
53439;SDS011;39333;47.044;15.080;2023-01-28T06:26:17;147.07;;;139.40;;
53439;SDS011;39333;47.044;15.080;2023-01-28T06:28:45;142.90;;;134.32;;
53439;SDS011;39333;47.044;15.080;2023-01-28T06:31:12;136.95;;;129.60;;
53439;SDS011;39333;47.044;15.080;2023-01-28T06:33:39;135.00;;;127.30;;
53439;SDS011;39333;47.044;15.080;2023-01-28T06:36:06;145.85;;;137.30;;
53439;SDS011;39333;47.044;15.080;2023-01-28T06:38:33;149.38;;;141.27;;
53439;SDS011;39333;47.044;15.080;2023-01-28T06:41:01;139.05;;;131.77;;
53439;SDS011;39333;47.044;15.080;2023-01-28T06:43:27;148.25;;;139.55;;
53439;SDS011;39333;47.044;15.080;2023-01-28T06:45:56;128.50;;;121.53;;
53439;SDS011;39333;47.044;15.080;2023-01-28T06:48:24;150.15;;;140.98;;
53439;SDS011;39333;47.044;15.080;2023-01-28T06:50:51;131.30;;;124.07;;
53439;SDS011;39333;47.044;15.080;2023-01-28T06:53:19;144.13;;;135.15;;
53439;SDS011;39333;47.044;15.080;2023-01-28T06:55:46;141.90;;;133.32;;
53439;SDS011;39333;47.044;15.080;2023-01-28T06:58:13;139.95;;;132.30;;
53439;SDS011;39333;47.044;15.080;2023-01-28T07:00:40;131.07;;;123.20;;
53439;SDS011;39333;47.044;15.080;2023-01-28T07:03:07;143.93;;;135.73;;
53439;SDS011;39333;47.044;15.080;2023-01-28T07:05:34;147.20;;;137.70;;
53439;SDS011;39333;47.044;15.080;2023-01-28T07:08:01;146.68;;;138.00;;
53439;SDS011;39333;47.044;15.080;2023-01-28T07:10:28;154.68;;;146.13;;
53439;SDS011;39333;47.044;15.080;2023-01-28T07:12:56;137.68;;;129.75;;
53439;SDS011;39333;47.044;15.080;2023-01-28T07:15:22;140.30;;;131.63;;
53439;SDS011;39333;47.044;15.080;2023-01-28T07:17:49;146.60;;;138.80;;
53439;SDS011;39333;47.044;15.080;2023-01-28T07:20:16;147.45;;;139.20;;
53439;SDS011;39333;47.044;15.080;2023-01-28T07:22:44;145.27;;;137.35;;
53439;SDS011;39333;47.044;15.080;2023-01-28T07:25:11;140.68;;;132.55;;
53439;SDS011;39333;47.044;15.080;2023-01-28T07:27:45;144.25;;;136.80;;
53439;SDS011;39333;47.044;15.080;2023-01-28T07:30:13;139.95;;;132.48;;
53439;SDS011;39333;47.044;15.080;2023-01-28T07:32:41;133.63;;;126.35;;
53439;SDS011;39333;47.044;15.080;2023-01-28T07:35:08;138.20;;;130.55;;
53439;SDS011;39333;47.044;15.080;2023-01-28T07:37:35;135.48;;;127.97;;
53439;SDS011;39333;47.044;15.080;2023-01-28T07:40:02;149.55;;;141.57;;
53439;SDS011;39333;47.044;15.080;2023-01-28T07:42:29;143.07;;;135.25;;
53439;SDS011;39333;47.044;15.080;2023-01-28T07:45:01;146.02;;;137.88;;
53439;SDS011;39333;47.044;15.080;2023-01-28T07:47:30;158.32;;;148.55;;
53439;SDS011;39333;47.044;15.080;2023-01-28T07:49:57;144.20;;;136.82;;
53439;SDS011;39333;47.044;15.080;2023-01-28T07:52:24;143.32;;;135.52;;
53439;SDS011;39333;47.044;15.080;2023-01-28T07:54:51;141.30;;;133.48;;
53439;SDS011;39333;47.044;15.080;2023-01-28T07:57:18;145.15;;;137.07;;
53439;SDS011;39333;47.044;15.080;2023-01-28T07:59:49;142.25;;;133.88;;
53439;SDS011;39333;47.044;15.080;2023-01-28T08:02:18;132.40;;;124.88;;
53439;SDS011;39333;47.044;15.080;2023-01-28T08:04:46;134.82;;;127.28;;
53439;SDS011;39333;47.044;15.080;2023-01-28T08:07:13;137.65;;;129.48;;
53439;SDS011;39333;47.044;15.080;2023-01-28T08:09:40;143.43;;;135.73;;
53439;SDS011;39333;47.044;15.080;2023-01-28T08:12:07;150.98;;;142.23;;
53439;SDS011;39333;47.044;15.080;2023-01-28T08:14:33;150.02;;;141.35;;
53439;SDS011;39333;47.044;15.080;2023-01-28T08:17:00;153.35;;;143.80;;
53439;SDS011;39333;47.044;15.080;2023-01-28T08:19:27;151.27;;;142.45;;
53439;SDS011;39333;47.044;15.080;2023-01-28T08:21:54;148.32;;;139.77;;
53439;SDS011;39333;47.044;15.080;2023-01-28T08:24:21;143.18;;;134.98;;
53439;SDS011;39333;47.044;15.080;2023-01-28T08:26:51;146.15;;;137.55;;
53439;SDS011;39333;47.044;15.080;2023-01-28T08:29:18;141.77;;;133.23;;
53439;SDS011;39333;47.044;15.080;2023-01-28T08:31:44;155.07;;;145.32;;
53439;SDS011;39333;47.044;15.080;2023-01-28T08:34:12;134.95;;;127.18;;
53439;SDS011;39333;47.044;15.080;2023-01-28T08:36:41;143.13;;;134.20;;
53439;SDS011;39333;47.044;15.080;2023-01-28T08:39:07;142.13;;;133.00;;
53439;SDS011;39333;47.044;15.080;2023-01-28T08:41:34;136.02;;;128.57;;
53439;SDS011;39333;47.044;15.080;2023-01-28T08:44:01;144.18;;;135.82;;
53439;SDS011;39333;47.044;15.080;2023-01-28T08:46:28;141.48;;;132.75;;
53439;SDS011;39333;47.044;15.080;2023-01-28T08:48:55;146.48;;;138.55;;
53439;SDS011;39333;47.044;15.080;2023-01-28T08:51:22;144.75;;;136.30;;
53439;SDS011;39333;47.044;15.080;2023-01-28T08:53:49;139.38;;;131.48;;
53439;SDS011;39333;47.044;15.080;2023-01-28T08:56:16;149.15;;;140.05;;
53439;SDS011;39333;47.044;15.080;2023-01-28T08:58:43;147.57;;;138.18;;
53439;SDS011;39333;47.044;15.080;2023-01-28T09:01:10;155.82;;;147.30;;
53439;SDS011;39333;47.044;15.080;2023-01-28T09:03:37;156.43;;;146.90;;
53439;SDS011;39333;47.044;15.080;2023-01-28T09:06:04;147.02;;;138.40;;
53439;SDS011;39333;47.044;15.080;2023-01-28T09:08:31;143.15;;;134.98;;
53439;SDS011;39333;47.044;15.080;2023-01-28T09:10:58;159.18;;;150.88;;
53439;SDS011;39333;47.044;15.080;2023-01-28T09:13:26;144.73;;;136.90;;
53439;SDS011;39333;47.044;15.080;2023-01-28T09:15:54;141.57;;;133.13;;
53439;SDS011;39333;47.044;15.080;2023-01-28T09:18:21;154.93;;;146.55;;
53439;SDS011;39333;47.044;15.080;2023-01-28T09:20:48;144.70;;;136.02;;
53439;SDS011;39333;47.044;15.080;2023-01-28T09:23:18;159.30;;;150.55;;
53439;SDS011;39333;47.044;15.080;2023-01-28T09:25:45;144.55;;;136.23;;
53439;SDS011;39333;47.044;15.080;2023-01-28T09:28:12;150.32;;;141.57;;
53439;SDS011;39333;47.044;15.080;2023-01-28T09:30:39;149.10;;;140.65;;
53439;SDS011;39333;47.044;15.080;2023-01-28T09:33:06;151.05;;;142.00;;
53439;SDS011;39333;47.044;15.080;2023-01-28T09:35:38;146.23;;;138.02;;
53439;SDS011;39333;47.044;15.080;2023-01-28T09:38:05;140.38;;;132.02;;
53439;SDS011;39333;47.044;15.080;2023-01-28T09:40:36;154.75;;;145.80;;
53439;SDS011;39333;47.044;15.080;2023-01-28T09:46:14;147.30;;;139.63;;
53439;SDS011;39333;47.044;15.080;2023-01-28T09:48:45;139.30;;;131.93;;
53439;SDS011;39333;47.044;15.080;2023-01-28T09:51:58;150.60;;;138.90;;
53439;SDS011;39333;47.044;15.080;2023-01-28T09:54:44;154.10;;;145.18;;
53439;SDS011;39333;47.044;15.080;2023-01-28T09:57:18;162.18;;;151.57;;
53439;SDS011;39333;47.044;15.080;2023-01-28T09:59:51;148.32;;;139.75;;
53439;SDS011;39333;47.044;15.080;2023-01-28T10:02:40;157.88;;;148.82;;
53439;SDS011;39333;47.044;15.080;2023-01-28T10:10:55;146.30;;;137.73;;
53439;SDS011;39333;47.044;15.080;2023-01-28T10:17:13;150.32;;;141.43;;
53439;SDS011;39333;47.044;15.080;2023-01-28T10:21:57;159.90;;;150.55;;
53439;SDS011;39333;47.044;15.080;2023-01-28T10:24:35;152.05;;;143.25;;
53439;SDS011;39333;47.044;15.080;2023-01-28T10:27:20;144.70;;;135.25;;
53439;SDS011;39333;47.044;15.080;2023-01-28T10:29:49;142.00;;;133.82;;
53439;SDS011;39333;47.044;15.080;2023-01-28T10:32:30;143.13;;;134.05;;
53439;SDS011;39333;47.044;15.080;2023-01-28T10:35:02;144.48;;;135.85;;
53439;SDS011;39333;47.044;15.080;2023-01-28T10:37:30;151.98;;;142.75;;
53439;SDS011;39333;47.044;15.080;2023-01-28T10:40:00;151.52;;;141.80;;
53439;SDS011;39333;47.044;15.080;2023-01-28T10:42:30;155.55;;;146.60;;
53439;SDS011;39333;47.044;15.080;2023-01-28T10:45:20;141.20;;;132.48;;
53439;SDS011;39333;47.044;15.080;2023-01-28T10:47:55;154.43;;;144.63;;
53439;SDS011;39333;47.044;15.080;2023-01-28T10:50:51;157.48;;;147.40;;
53439;SDS011;39333;47.044;15.080;2023-01-28T10:53:31;199.65;;;179.35;;
53439;SDS011;39333;47.044;15.080;2023-01-28T10:56:16;151.38;;;142.07;;
53439;SDS011;39333;47.044;15.080;2023-01-28T10:59:01;142.20;;;133.20;;
53439;SDS011;39333;47.044;15.080;2023-01-28T11:01:41;144.27;;;135.70;;
53439;SDS011;39333;47.044;15.080;2023-01-28T11:04:16;143.25;;;134.35;;
53439;SDS011;39333;47.044;15.080;2023-01-28T11:07:02;144.95;;;135.60;;
53439;SDS011;39333;47.044;15.080;2023-01-28T11:09:32;146.10;;;137.35;;
53439;SDS011;39333;47.044;15.080;2023-01-28T11:12:21;151.93;;;142.85;;
53439;SDS011;39333;47.044;15.080;2023-01-28T11:17:28;147.60;;;139.07;;
53439;SDS011;39333;47.044;15.080;2023-01-28T11:20:09;142.60;;;133.95;;
53439;SDS011;39333;47.044;15.080;2023-01-28T11:22:43;151.95;;;142.88;;
53439;SDS011;39333;47.044;15.080;2023-01-28T11:27:53;153.63;;;144.02;;
53439;SDS011;39333;47.044;15.080;2023-01-28T11:30:30;149.40;;;140.50;;
53439;SDS011;39333;47.044;15.080;2023-01-28T11:33:19;149.70;;;140.40;;
53439;SDS011;39333;47.044;15.080;2023-01-28T11:38:46;150.35;;;141.57;;
53439;SDS011;39333;47.044;15.080;2023-01-28T11:43:58;151.98;;;143.23;;
53439;SDS011;39333;47.044;15.080;2023-01-28T11:51:46;141.70;;;133.30;;
53439;SDS011;39333;47.044;15.080;2023-01-28T11:55:18;157.43;;;147.77;;
53439;SDS011;39333;47.044;15.080;2023-01-28T11:57:24;146.15;;;136.85;;
53439;SDS011;39333;47.044;15.080;2023-01-28T12:02:48;134.20;;;126.50;;
53439;SDS011;39333;47.044;15.080;2023-01-28T12:08:23;147.95;;;138.70;;
53439;SDS011;39333;47.044;15.080;2023-01-28T12:10:58;150.25;;;141.63;;
53439;SDS011;39333;47.044;15.080;2023-01-28T12:30:23;153.13;;;143.60;;
53439;SDS011;39333;47.044;15.080;2023-01-28T12:42:52;139.77;;;131.02;;
53439;SDS011;39333;47.044;15.080;2023-01-28T12:45:45;134.77;;;126.47;;
53439;SDS011;39333;47.044;15.080;2023-01-28T12:51:07;138.27;;;129.90;;
53439;SDS011;39333;47.044;15.080;2023-01-28T12:53:42;144.35;;;135.77;;
53439;SDS011;39333;47.044;15.080;2023-01-28T12:56:19;143.57;;;134.65;;
53439;SDS011;39333;47.044;15.080;2023-01-28T12:58:56;160.70;;;150.70;;
53439;SDS011;39333;47.044;15.080;2023-01-28T13:09:59;138.05;;;129.68;;
53439;SDS011;39333;47.044;15.080;2023-01-28T13:12:30;141.10;;;133.05;;
53439;SDS011;39333;47.044;15.080;2023-01-28T13:14:59;141.77;;;132.75;;
53439;SDS011;39333;47.044;15.080;2023-01-28T13:17:30;141.57;;;132.93;;
53439;SDS011;39333;47.044;15.080;2023-01-28T13:19:58;140.77;;;132.15;;
53439;SDS011;39333;47.044;15.080;2023-01-28T13:22:30;141.65;;;133.02;;
53439;SDS011;39333;47.044;15.080;2023-01-28T13:25:17;149.98;;;141.18;;
53439;SDS011;39333;47.044;15.080;2023-01-28T13:27:57;143.75;;;134.88;;
53439;SDS011;39333;47.044;15.080;2023-01-28T13:30:34;143.45;;;134.93;;
53439;SDS011;39333;47.044;15.080;2023-01-28T13:33:27;139.85;;;131.93;;
53439;SDS011;39333;47.044;15.080;2023-01-28T13:35:56;162.07;;;152.18;;
53439;SDS011;39333;47.044;15.080;2023-01-28T13:38:27;148.13;;;139.07;;
53439;SDS011;39333;47.044;15.080;2023-01-28T13:40:56;146.15;;;137.00;;
53439;SDS011;39333;47.044;15.080;2023-01-28T13:51:19;156.90;;;147.18;;
53439;SDS011;39333;47.044;15.080;2023-01-28T13:56:54;137.30;;;129.10;;
53439;SDS011;39333;47.044;15.080;2023-01-28T14:09:57;150.98;;;142.02;;
53439;SDS011;39333;47.044;15.080;2023-01-28T14:12:43;140.48;;;132.23;;
53439;SDS011;39333;47.044;15.080;2023-01-28T14:18:25;136.13;;;127.40;;
53439;SDS011;39333;47.044;15.080;2023-01-28T14:20:59;138.20;;;129.52;;
53439;SDS011;39333;47.044;15.080;2023-01-28T14:23:28;142.23;;;133.60;;
53439;SDS011;39333;47.044;15.080;2023-01-28T14:28:39;142.38;;;133.52;;
53439;SDS011;39333;47.044;15.080;2023-01-28T14:31:22;155.02;;;145.82;;
53439;SDS011;39333;47.044;15.080;2023-01-28T14:33:54;145.65;;;136.73;;
53439;SDS011;39333;47.044;15.080;2023-01-28T14:36:24;153.13;;;143.77;;
53439;SDS011;39333;47.044;15.080;2023-01-28T14:38:52;144.85;;;135.88;;
53439;SDS011;39333;47.044;15.080;2023-01-28T14:41:24;141.73;;;132.45;;
53439;SDS011;39333;47.044;15.080;2023-01-28T14:43:55;145.80;;;136.88;;
53439;SDS011;39333;47.044;15.080;2023-01-28T14:46:31;142.77;;;134.57;;
53439;SDS011;39333;47.044;15.080;2023-01-28T14:59:50;161.63;;;150.75;;
53439;SDS011;39333;47.044;15.080;2023-01-28T15:02:21;151.02;;;141.43;;
53439;SDS011;39333;47.044;15.080;2023-01-28T15:04:50;142.13;;;133.27;;
53439;SDS011;39333;47.044;15.080;2023-01-28T15:09:59;141.80;;;132.73;;
53439;SDS011;39333;47.044;15.080;2023-01-28T15:12:37;154.57;;;145.02;;
53439;SDS011;39333;47.044;15.080;2023-01-28T15:20:38;140.38;;;131.38;;
53439;SDS011;39333;47.044;15.080;2023-01-28T15:23:11;157.52;;;147.90;;
53439;SDS011;39333;47.044;15.080;2023-01-28T15:25:42;146.27;;;136.50;;
53439;SDS011;39333;47.044;15.080;2023-01-28T15:28:14;153.23;;;143.43;;
53439;SDS011;39333;47.044;15.080;2023-01-28T15:30:49;137.60;;;129.23;;
53439;SDS011;39333;47.044;15.080;2023-01-28T15:33:16;145.85;;;135.65;;
53439;SDS011;39333;47.044;15.080;2023-01-28T15:35:53;153.75;;;144.13;;
53439;SDS011;39333;47.044;15.080;2023-01-28T15:38:25;137.55;;;128.52;;
53439;SDS011;39333;47.044;15.080;2023-01-28T15:40:54;144.40;;;135.35;;
53439;SDS011;39333;47.044;15.080;2023-01-28T15:43:30;139.63;;;130.27;;
53439;SDS011;39333;47.044;15.080;2023-01-28T15:45:59;148.30;;;137.82;;
53439;SDS011;39333;47.044;15.080;2023-01-28T15:48:27;161.43;;;150.93;;
53439;SDS011;39333;47.044;15.080;2023-01-28T15:53:45;146.60;;;136.85;;
53439;SDS011;39333;47.044;15.080;2023-01-28T15:56:14;157.23;;;147.00;;
53439;SDS011;39333;47.044;15.080;2023-01-28T15:58:41;138.32;;;129.38;;
53439;SDS011;39333;47.044;15.080;2023-01-28T16:03:36;148.95;;;139.38;;
53439;SDS011;39333;47.044;15.080;2023-01-28T16:08:45;156.88;;;147.23;;
53439;SDS011;39333;47.044;15.080;2023-01-28T16:11:21;143.38;;;134.85;;
53439;SDS011;39333;47.044;15.080;2023-01-28T16:13:54;141.00;;;131.25;;
53439;SDS011;39333;47.044;15.080;2023-01-28T16:16:40;142.10;;;131.73;;
53439;SDS011;39333;47.044;15.080;2023-01-28T16:19:17;139.77;;;131.13;;
53439;SDS011;39333;47.044;15.080;2023-01-28T16:22:06;151.35;;;142.13;;
53439;SDS011;39333;47.044;15.080;2023-01-28T16:24:47;135.45;;;127.00;;
53439;SDS011;39333;47.044;15.080;2023-01-28T16:27:25;144.50;;;135.70;;
53439;SDS011;39333;47.044;15.080;2023-01-28T16:29:53;169.10;;;154.57;;
53439;SDS011;39333;47.044;15.080;2023-01-28T16:32:33;146.30;;;137.43;;
53439;SDS011;39333;47.044;15.080;2023-01-28T16:35:20;150.05;;;141.07;;
53439;SDS011;39333;47.044;15.080;2023-01-28T16:37:50;136.30;;;127.93;;
53439;SDS011;39333;47.044;15.080;2023-01-28T16:40:21;146.90;;;137.45;;
53439;SDS011;39333;47.044;15.080;2023-01-28T16:42:52;145.65;;;135.90;;
53439;SDS011;39333;47.044;15.080;2023-01-28T16:45:22;135.02;;;125.57;;
53439;SDS011;39333;47.044;15.080;2023-01-28T16:47:50;135.70;;;126.72;;
53439;SDS011;39333;47.044;15.080;2023-01-28T16:50:18;141.57;;;132.38;;